Wednesday, April 23, 2014, 5:11 AM EDT

KLNS, Lancaster Airport

Location: Lititz, PA, United States Lat: 40.117
Local Time: 5:11 AM EDT ( 9:11 GMT) Lon: -76.3
Time Zone: US/Eastern Elev: 403 ft

Show me the last for .
Show Decoded

2014-04-23 04:53 METAR KLNS 230853Z 30019G25KT 10SM BKN047 08/01 A2965 RMK AO2 PK WND 30027/0832
                 SLP040 T00830011 58002 =
2014-04-23 03:53 METAR KLNS 230753Z 27009KT 10SM CLR 07/01 A2966 RMK AO2 SLP043 T00670006 =
2014-04-23 02:53 METAR KLNS 230653Z 30014G23KT 10SM CLR 08/00 A2965 RMK AO2 PK WND 30026/0631
                 SLP041 T00780000 =
2014-04-23 01:53 METAR KLNS 230553Z 29010KT 10SM CLR 08/02 A2966 RMK AO2 SLP042 60001 T00780017
                 10128 20072 51014 =
2014-04-23 00:53 METAR KLNS 230453Z 28009KT 10SM CLR 09/03 A2965 RMK AO2 PK WND 29026/0401 SLP038
                 T00890028 401890067 =
2014-04-22 23:53 METAR KLNS 230353Z 29016G22KT 10SM CLR 11/03 A2963 RMK AO2 PK WND 29027/0334
                 SLP033 T01060028 =
2014-04-22 22:53 METAR KLNS 230253Z 27011KT 10SM SCT085 11/09 A2961 RMK AO2 SLP028 60001
                 T01110089 51014 =
2014-04-22 21:53 METAR KLNS 230153Z 29005KT 8SM CLR 10/09 A2961 RMK AO2 SLP026 T01000089 =
2014-04-22 20:53 METAR KLNS 230053Z 26006KT 10SM FEW095 12/10 A2960 RMK AO2 SLP023 P0001
                 T01170100 =
2014-04-22 19:53 METAR KLNS 222353Z 19003KT 10SM SCT060 BKN075 BKN110 13/10 A2957 RMK AO2 RAE53
                 TSE2255 SLP014 P0002 60009 T01280100 10189 20128 58001 =
2014-04-22 19:18 METAR KLNS 222318Z 25007KT 8SM -RA OVC070 13/09 A2960 RMK AO2 LTG DSNT NE AND E
                 TSE2255 P0001 T01330094 =
2014-04-22 19:01 METAR KLNS 222301Z 27016G21KT 10SM VCTS -RA OVC070 13/09 A2962 RMK AO2 LTG DSNT
                 N-E TSE2255 P0000 T01330089 =
2014-04-22 18:53 METAR KLNS 222253Z 29012KT 10SM -TSRA SCT060 OVC070 13/09 A2962 RMK AO2 PK WND
                 30050/2229 WSHFT 2224 LTG DSNT N AND SW RAB32 TSB30 SLP030 P0001 T01330089 =
2014-04-22 18:44 METAR KLNS 222244Z 31013G34KT 5SM -TSRA SCT060 BKN070 13/08 A2963 RMK AO2 PK WND
                 30050/2229 WSHFT 2224 LTG DSNT SW-N RAB32 TSB30 PRESRR P0000 T01280083 =
2014-04-22 18:30 METAR KLNS 222230Z 31038G50KT 9SM TS SQ FEW035 FEW049 SCT100 18/11 A2961 RMK AO2
                 PK WND 30050/2229 LTG DSNT SW-N TSB30 PRESRR T01780111 =
2014-04-22 17:53 METAR KLNS 222153Z 25009KT 9SM CLR 19/13 A2956 RMK AO2 LTG DSNT NW SLP009
                 T01890128 =
2014-04-22 16:53 METAR KLNS 222053Z 26009KT 8SM SCT095 BKN110 18/13 A2958 RMK AO2 SLP015 60006
                 T01780128 56021 =
2014-04-22 15:53 METAR KLNS 221953Z 24006KT 6SM HZ BKN041 OVC048 16/13 A2959 RMK AO2 RAE04 SLP021
                 P0002 T01610133 =
2014-04-22 14:53 METAR KLNS 221853Z 23008KT 5SM -RA BR OVC085 15/13 A2962 RMK AO2 SLP029 P0004
                 T01500128 =
2014-04-22 14:30 METAR KLNS 221830Z 24006KT 4SM -RA SCT065 OVC080 15/12 A2963 RMK AO2 P0002
                 T01500117 =
2014-04-22 14:22 METAR KLNS 221822Z 25007KT 2 1/2SM RA BKN065 OVC080 15/12 A2964 RMK AO2 P0002
                 T01500117 =
2014-04-22 13:53 METAR KLNS 221753Z 26008KT 9SM -RA OVC080 17/10 A2964 RMK AO2 RAB21 SLP036 P0000
                 60000 T01670100 10189 20100 56012 =
2014-04-22 12:53 METAR KLNS 221653Z 28008KT 10SM FEW050 SCT070 BKN085 19/09 A2964 RMK AO2 SLP036
                 T01890089 =
2014-04-22 11:53 METAR KLNS 221553Z 00000KT 10SM CLR 18/07 A2965 RMK AO2 SLP041 T01780072 =
2014-04-22 10:53 METAR KLNS 221453Z 15004KT 10SM CLR 16/08 A2967 RMK AO2 SLP048 T01560078 58017 =
2014-04-22 09:53 METAR KLNS 221353Z 00000KT 10SM FEW110 13/07 A2969 RMK AO2 SLP053 T01330067 =
2014-04-22 08:53 METAR KLNS 221253Z 23005KT 10SM CLR 12/07 A2971 RMK AO2 SLP061 T01220072 =
2014-04-22 07:53 METAR KLNS 221153Z 09003KT 8SM CLR 09/07 A2972 RMK AO2 SLP064 T00940072 10100
                 20067 56016 =
2014-04-22 06:53 METAR KLNS 221053Z 09003KT 9SM CLR 08/06 A2974 RMK AO2 SLP071 T00780056 =
2014-04-22 05:53 METAR KLNS 220953Z 10004KT 10SM CLR 07/04 A2975 RMK AO2 SLP074 T00720044 =

Support USWX by starting your Amazon purchase here.